sensor_id;sensor_type;location;lat;lon;timestamp;P1;durP1;ratioP1;P2;durP2;ratioP2
4704;SDS011;2366;51.332;6.610;2022-12-18T00:01:41;16.93;;;8.70;;
4704;SDS011;2366;51.332;6.610;2022-12-18T00:04:07;12.90;;;7.37;;
4704;SDS011;2366;51.332;6.610;2022-12-18T00:06:40;16.30;;;7.70;;
4704;SDS011;2366;51.332;6.610;2022-12-18T00:09:05;19.13;;;9.00;;
4704;SDS011;2366;51.332;6.610;2022-12-18T00:11:30;13.37;;;7.67;;
4704;SDS011;2366;51.332;6.610;2022-12-18T00:13:57;14.65;;;9.15;;
4704;SDS011;2366;51.332;6.610;2022-12-18T00:16:24;14.85;;;7.50;;
4704;SDS011;2366;51.332;6.610;2022-12-18T00:18:52;16.05;;;6.95;;
4704;SDS011;2366;51.332;6.610;2022-12-18T00:21:19;16.52;;;8.70;;
4704;SDS011;2366;51.332;6.610;2022-12-18T00:23:46;11.45;;;7.32;;
4704;SDS011;2366;51.332;6.610;2022-12-18T00:26:14;13.00;;;9.23;;
4704;SDS011;2366;51.332;6.610;2022-12-18T00:28:44;12.70;;;7.90;;
4704;SDS011;2366;51.332;6.610;2022-12-18T00:31:11;17.02;;;8.85;;
4704;SDS011;2366;51.332;6.610;2022-12-18T00:33:45;17.98;;;8.55;;
4704;SDS011;2366;51.332;6.610;2022-12-18T00:36:12;13.32;;;8.07;;
4704;SDS011;2366;51.332;6.610;2022-12-18T00:38:39;8.93;;;7.57;;
4704;SDS011;2366;51.332;6.610;2022-12-18T00:41:05;15.90;;;7.33;;
4704;SDS011;2366;51.332;6.610;2022-12-18T00:43:31;20.15;;;9.40;;
4704;SDS011;2366;51.332;6.610;2022-12-18T00:45:57;18.33;;;9.97;;
4704;SDS011;2366;51.332;6.610;2022-12-18T00:48:22;12.90;;;7.77;;
4704;SDS011;2366;51.332;6.610;2022-12-18T00:50:48;13.00;;;9.73;;
4704;SDS011;2366;51.332;6.610;2022-12-18T00:53:14;10.60;;;6.93;;
4704;SDS011;2366;51.332;6.610;2022-12-18T00:55:40;14.57;;;8.70;;
4704;SDS011;2366;51.332;6.610;2022-12-18T00:58:06;16.73;;;7.68;;
4704;SDS011;2366;51.332;6.610;2022-12-18T01:00:32;11.40;;;7.13;;
4704;SDS011;2366;51.332;6.610;2022-12-18T01:02:57;12.70;;;8.50;;
4704;SDS011;2366;51.332;6.610;2022-12-18T01:05:23;14.20;;;9.23;;
4704;SDS011;2366;51.332;6.610;2022-12-18T01:07:49;15.70;;;8.37;;
4704;SDS011;2366;51.332;6.610;2022-12-18T01:10:14;14.83;;;8.47;;
4704;SDS011;2366;51.332;6.610;2022-12-18T01:12:40;14.13;;;7.00;;
4704;SDS011;2366;51.332;6.610;2022-12-18T01:15:06;9.60;;;7.73;;
4704;SDS011;2366;51.332;6.610;2022-12-18T01:17:32;15.25;;;8.02;;
4704;SDS011;2366;51.332;6.610;2022-12-18T01:19:58;15.07;;;7.70;;
4704;SDS011;2366;51.332;6.610;2022-12-18T01:22:23;14.10;;;7.03;;
4704;SDS011;2366;51.332;6.610;2022-12-18T01:24:49;14.50;;;8.13;;
4704;SDS011;2366;51.332;6.610;2022-12-18T01:27:14;11.60;;;6.43;;
4704;SDS011;2366;51.332;6.610;2022-12-18T01:29:39;8.37;;;6.50;;
4704;SDS011;2366;51.332;6.610;2022-12-18T01:32:05;11.60;;;6.43;;
4704;SDS011;2366;51.332;6.610;2022-12-18T01:34:30;15.23;;;7.07;;
4704;SDS011;2366;51.332;6.610;2022-12-18T01:36:56;11.63;;;7.63;;
4704;SDS011;2366;51.332;6.610;2022-12-18T01:39:21;11.47;;;7.47;;
4704;SDS011;2366;51.332;6.610;2022-12-18T01:41:46;19.23;;;8.03;;
4704;SDS011;2366;51.332;6.610;2022-12-18T01:50:14;12.13;;;8.30;;
4704;SDS011;2366;51.332;6.610;2022-12-18T01:52:46;16.42;;;9.80;;
4704;SDS011;2366;51.332;6.610;2022-12-18T01:55:16;12.52;;;9.73;;
4704;SDS011;2366;51.332;6.610;2022-12-18T01:57:45;17.80;;;8.70;;
4704;SDS011;2366;51.332;6.610;2022-12-18T02:00:16;13.68;;;8.30;;
4704;SDS011;2366;51.332;6.610;2022-12-18T02:02:44;12.55;;;7.85;;
4704;SDS011;2366;51.332;6.610;2022-12-18T02:05:11;16.70;;;8.15;;
4704;SDS011;2366;51.332;6.610;2022-12-18T02:08:02;13.32;;;8.50;;
4704;SDS011;2366;51.332;6.610;2022-12-18T02:16:21;10.90;;;8.13;;
4704;SDS011;2366;51.332;6.610;2022-12-18T02:18:56;14.60;;;7.75;;
4704;SDS011;2366;51.332;6.610;2022-12-18T02:24:18;15.25;;;7.35;;
4704;SDS011;2366;51.332;6.610;2022-12-18T02:26:58;14.10;;;7.72;;
4704;SDS011;2366;51.332;6.610;2022-12-18T02:29:29;17.95;;;8.25;;
4704;SDS011;2366;51.332;6.610;2022-12-18T02:32:05;13.50;;;7.90;;
4704;SDS011;2366;51.332;6.610;2022-12-18T02:34:35;15.52;;;9.07;;
4704;SDS011;2366;51.332;6.610;2022-12-18T02:37:04;11.35;;;7.97;;
4704;SDS011;2366;51.332;6.610;2022-12-18T02:39:33;14.18;;;7.00;;
4704;SDS011;2366;51.332;6.610;2022-12-18T02:42:00;12.18;;;7.85;;
4704;SDS011;2366;51.332;6.610;2022-12-18T02:44:32;15.23;;;7.80;;
4704;SDS011;2366;51.332;6.610;2022-12-18T02:46:58;14.70;;;8.60;;
4704;SDS011;2366;51.332;6.610;2022-12-18T02:49:35;19.87;;;7.63;;
4704;SDS011;2366;51.332;6.610;2022-12-18T02:52:47;11.43;;;7.95;;
4704;SDS011;2366;51.332;6.610;2022-12-18T02:57:57;11.52;;;8.00;;
4704;SDS011;2366;51.332;6.610;2022-12-18T03:00:39;18.90;;;8.50;;
4704;SDS011;2366;51.332;6.610;2022-12-18T03:03:17;15.38;;;8.35;;
4704;SDS011;2366;51.332;6.610;2022-12-18T03:05:50;16.90;;;8.25;;
4704;SDS011;2366;51.332;6.610;2022-12-18T03:08:30;15.70;;;8.40;;
4704;SDS011;2366;51.332;6.610;2022-12-18T03:11:05;16.10;;;8.82;;
4704;SDS011;2366;51.332;6.610;2022-12-18T03:13:34;12.70;;;7.57;;
4704;SDS011;2366;51.332;6.610;2022-12-18T03:16:05;15.25;;;7.13;;
4704;SDS011;2366;51.332;6.610;2022-12-18T03:18:53;10.45;;;7.10;;
4704;SDS011;2366;51.332;6.610;2022-12-18T03:21:26;12.10;;;7.05;;
4704;SDS011;2366;51.332;6.610;2022-12-18T03:23:55;10.63;;;7.10;;
4704;SDS011;2366;51.332;6.610;2022-12-18T03:26:22;14.23;;;7.18;;
4704;SDS011;2366;51.332;6.610;2022-12-18T03:28:51;10.52;;;6.47;;
4704;SDS011;2366;51.332;6.610;2022-12-18T03:31:22;16.85;;;8.75;;
4704;SDS011;2366;51.332;6.610;2022-12-18T03:33:53;9.55;;;7.00;;
4704;SDS011;2366;51.332;6.610;2022-12-18T03:36:21;17.98;;;7.93;;
4704;SDS011;2366;51.332;6.610;2022-12-18T03:38:47;19.70;;;8.43;;
4704;SDS011;2366;51.332;6.610;2022-12-18T03:41:21;17.63;;;8.67;;
4704;SDS011;2366;51.332;6.610;2022-12-18T03:47:21;12.63;;;8.15;;
4704;SDS011;2366;51.332;6.610;2022-12-18T03:50:05;12.68;;;8.38;;
4704;SDS011;2366;51.332;6.610;2022-12-18T03:52:35;16.35;;;9.13;;
4704;SDS011;2366;51.332;6.610;2022-12-18T03:55:05;16.05;;;9.50;;
4704;SDS011;2366;51.332;6.610;2022-12-18T03:57:32;12.40;;;7.15;;
4704;SDS011;2366;51.332;6.610;2022-12-18T04:00:04;11.15;;;7.55;;
4704;SDS011;2366;51.332;6.610;2022-12-18T04:02:38;12.32;;;8.00;;
4704;SDS011;2366;51.332;6.610;2022-12-18T04:05:08;8.65;;;7.55;;
4704;SDS011;2366;51.332;6.610;2022-12-18T04:07:35;15.23;;;7.22;;
4704;SDS011;2366;51.332;6.610;2022-12-18T04:10:03;10.68;;;7.18;;
4704;SDS011;2366;51.332;6.610;2022-12-18T04:12:31;13.90;;;8.48;;
4704;SDS011;2366;51.332;6.610;2022-12-18T04:14:56;14.17;;;8.27;;
4704;SDS011;2366;51.332;6.610;2022-12-18T04:17:22;14.40;;;7.90;;
4704;SDS011;2366;51.332;6.610;2022-12-18T04:19:48;13.27;;;8.02;;
4704;SDS011;2366;51.332;6.610;2022-12-18T04:22:14;20.83;;;8.63;;
4704;SDS011;2366;51.332;6.610;2022-12-18T04:24:39;12.23;;;6.83;;
4704;SDS011;2366;51.332;6.610;2022-12-18T04:27:04;11.70;;;6.77;;
4704;SDS011;2366;51.332;6.610;2022-12-18T04:29:31;11.35;;;7.82;;
4704;SDS011;2366;51.332;6.610;2022-12-18T04:31:56;12.53;;;7.10;;
4704;SDS011;2366;51.332;6.610;2022-12-18T04:34:22;14.90;;;8.33;;
4704;SDS011;2366;51.332;6.610;2022-12-18T04:36:47;11.30;;;6.77;;
4704;SDS011;2366;51.332;6.610;2022-12-18T04:39:13;8.33;;;6.67;;
4704;SDS011;2366;51.332;6.610;2022-12-18T04:41:38;12.97;;;7.43;;
4704;SDS011;2366;51.332;6.610;2022-12-18T04:44:04;12.53;;;7.00;;
4704;SDS011;2366;51.332;6.610;2022-12-18T04:46:29;9.50;;;5.93;;
4704;SDS011;2366;51.332;6.610;2022-12-18T04:48:55;11.37;;;6.10;;
4704;SDS011;2366;51.332;6.610;2022-12-18T04:51:20;12.10;;;6.43;;
4704;SDS011;2366;51.332;6.610;2022-12-18T04:53:45;13.30;;;7.43;;
4704;SDS011;2366;51.332;6.610;2022-12-18T04:56:12;13.93;;;7.40;;
4704;SDS011;2366;51.332;6.610;2022-12-18T04:58:39;10.30;;;7.25;;
4704;SDS011;2366;51.332;6.610;2022-12-18T05:01:06;13.43;;;8.00;;
4704;SDS011;2366;51.332;6.610;2022-12-18T05:03:32;12.05;;;6.80;;
4704;SDS011;2366;51.332;6.610;2022-12-18T05:05:58;16.07;;;8.03;;
4704;SDS011;2366;51.332;6.610;2022-12-18T05:08:23;10.20;;;7.00;;
4704;SDS011;2366;51.332;6.610;2022-12-18T05:10:49;9.37;;;6.20;;
4704;SDS011;2366;51.332;6.610;2022-12-18T05:13:14;11.50;;;6.40;;
4704;SDS011;2366;51.332;6.610;2022-12-18T05:15:39;13.60;;;6.30;;
4704;SDS011;2366;51.332;6.610;2022-12-18T05:18:06;9.32;;;7.35;;
4704;SDS011;2366;51.332;6.610;2022-12-18T05:20:32;10.27;;;6.60;;
4704;SDS011;2366;51.332;6.610;2022-12-18T05:22:57;12.80;;;6.57;;
4704;SDS011;2366;51.332;6.610;2022-12-18T05:25:23;14.17;;;6.43;;
4704;SDS011;2366;51.332;6.610;2022-12-18T05:27:49;10.97;;;7.40;;
4704;SDS011;2366;51.332;6.610;2022-12-18T05:30:14;10.90;;;7.17;;
4704;SDS011;2366;51.332;6.610;2022-12-18T05:32:41;16.27;;;6.60;;
4704;SDS011;2366;51.332;6.610;2022-12-18T05:35:07;8.50;;;5.90;;
4704;SDS011;2366;51.332;6.610;2022-12-18T05:37:34;11.20;;;7.00;;
4704;SDS011;2366;51.332;6.610;2022-12-18T05:40:00;13.85;;;7.50;;
4704;SDS011;2366;51.332;6.610;2022-12-18T05:42:26;10.57;;;7.87;;
4704;SDS011;2366;51.332;6.610;2022-12-18T05:44:51;14.30;;;8.00;;
4704;SDS011;2366;51.332;6.610;2022-12-18T05:47:16;9.27;;;6.13;;
4704;SDS011;2366;51.332;6.610;2022-12-18T05:49:42;10.23;;;6.80;;
4704;SDS011;2366;51.332;6.610;2022-12-18T05:52:07;16.40;;;7.70;;
4704;SDS011;2366;51.332;6.610;2022-12-18T05:54:32;12.80;;;7.47;;
4704;SDS011;2366;51.332;6.610;2022-12-18T05:56:58;10.00;;;6.90;;
4704;SDS011;2366;51.332;6.610;2022-12-18T05:59:23;15.63;;;7.40;;
4704;SDS011;2366;51.332;6.610;2022-12-18T06:01:49;12.73;;;7.80;;
4704;SDS011;2366;51.332;6.610;2022-12-18T06:04:14;10.40;;;6.90;;
4704;SDS011;2366;51.332;6.610;2022-12-18T06:06:39;6.53;;;5.53;;
4704;SDS011;2366;51.332;6.610;2022-12-18T06:09:05;11.00;;;7.60;;
4704;SDS011;2366;51.332;6.610;2022-12-18T06:11:33;11.60;;;7.40;;
4704;SDS011;2366;51.332;6.610;2022-12-18T06:14:00;12.63;;;6.88;;
4704;SDS011;2366;51.332;6.610;2022-12-18T06:16:26;13.77;;;7.65;;
4704;SDS011;2366;51.332;6.610;2022-12-18T06:18:52;16.48;;;8.85;;
4704;SDS011;2366;51.332;6.610;2022-12-18T06:21:18;12.03;;;7.30;;
4704;SDS011;2366;51.332;6.610;2022-12-18T06:23:43;7.97;;;6.60;;
4704;SDS011;2366;51.332;6.610;2022-12-18T06:26:10;9.27;;;6.63;;
4704;SDS011;2366;51.332;6.610;2022-12-18T06:28:36;9.80;;;5.95;;
4704;SDS011;2366;51.332;6.610;2022-12-18T06:31:02;14.87;;;7.20;;
4704;SDS011;2366;51.332;6.610;2022-12-18T06:33:29;13.02;;;7.75;;
4704;SDS011;2366;51.332;6.610;2022-12-18T06:35:59;18.60;;;8.40;;
4704;SDS011;2366;51.332;6.610;2022-12-18T06:38:26;26.63;;;8.98;;
4704;SDS011;2366;51.332;6.610;2022-12-18T06:40:51;13.50;;;8.23;;
4704;SDS011;2366;51.332;6.610;2022-12-18T06:43:17;15.10;;;8.10;;
4704;SDS011;2366;51.332;6.610;2022-12-18T06:45:42;15.47;;;7.07;;
4704;SDS011;2366;51.332;6.610;2022-12-18T06:48:07;25.07;;;8.17;;
4704;SDS011;2366;51.332;6.610;2022-12-18T06:50:33;10.27;;;7.37;;
4704;SDS011;2366;51.332;6.610;2022-12-18T06:52:59;17.63;;;5.87;;
4704;SDS011;2366;51.332;6.610;2022-12-18T06:55:24;12.27;;;7.05;;
4704;SDS011;2366;51.332;6.610;2022-12-18T06:57:49;13.03;;;7.30;;
4704;SDS011;2366;51.332;6.610;2022-12-18T07:00:15;12.40;;;6.70;;
4704;SDS011;2366;51.332;6.610;2022-12-18T07:02:40;11.63;;;6.93;;
4704;SDS011;2366;51.332;6.610;2022-12-18T07:05:06;10.90;;;6.90;;
4704;SDS011;2366;51.332;6.610;2022-12-18T07:07:32;9.50;;;6.53;;
4704;SDS011;2366;51.332;6.610;2022-12-18T07:09:58;13.40;;;6.10;;
4704;SDS011;2366;51.332;6.610;2022-12-18T07:12:24;9.27;;;7.07;;
4704;SDS011;2366;51.332;6.610;2022-12-18T07:14:49;14.43;;;6.60;;
4704;SDS011;2366;51.332;6.610;2022-12-18T07:17:14;12.93;;;6.90;;
4704;SDS011;2366;51.332;6.610;2022-12-18T07:19:40;7.70;;;5.70;;
4704;SDS011;2366;51.332;6.610;2022-12-18T07:22:05;13.70;;;6.60;;
4704;SDS011;2366;51.332;6.610;2022-12-18T07:24:32;14.23;;;7.30;;
4704;SDS011;2366;51.332;6.610;2022-12-18T07:26:58;14.32;;;6.63;;
4704;SDS011;2366;51.332;6.610;2022-12-18T07:29:23;13.53;;;7.00;;
4704;SDS011;2366;51.332;6.610;2022-12-18T07:31:49;8.87;;;5.83;;
4704;SDS011;2366;51.332;6.610;2022-12-18T07:34:14;13.03;;;7.57;;
4704;SDS011;2366;51.332;6.610;2022-12-18T07:36:40;15.90;;;7.07;;
4704;SDS011;2366;51.332;6.610;2022-12-18T07:39:05;20.03;;;6.30;;
4704;SDS011;2366;51.332;6.610;2022-12-18T07:41:31;9.27;;;6.47;;
4704;SDS011;2366;51.332;6.610;2022-12-18T07:43:56;9.23;;;6.13;;
4704;SDS011;2366;51.332;6.610;2022-12-18T07:46:22;12.17;;;7.33;;
4704;SDS011;2366;51.332;6.610;2022-12-18T07:48:47;12.93;;;7.67;;
4704;SDS011;2366;51.332;6.610;2022-12-18T07:51:13;7.90;;;5.87;;
4704;SDS011;2366;51.332;6.610;2022-12-18T07:53:39;12.67;;;7.70;;
4704;SDS011;2366;51.332;6.610;2022-12-18T07:56:05;11.38;;;7.25;;
4704;SDS011;2366;51.332;6.610;2022-12-18T07:58:34;8.65;;;5.70;;
4704;SDS011;2366;51.332;6.610;2022-12-18T08:01:04;13.60;;;6.60;;
4704;SDS011;2366;51.332;6.610;2022-12-18T08:03:29;11.63;;;6.63;;
4704;SDS011;2366;51.332;6.610;2022-12-18T08:05:58;11.00;;;7.87;;
4704;SDS011;2366;51.332;6.610;2022-12-18T08:08:25;9.52;;;6.90;;
4704;SDS011;2366;51.332;6.610;2022-12-18T08:10:50;8.23;;;5.17;;
4704;SDS011;2366;51.332;6.610;2022-12-18T08:13:15;19.20;;;6.33;;
4704;SDS011;2366;51.332;6.610;2022-12-18T08:15:41;12.83;;;8.27;;
4704;SDS011;2366;51.332;6.610;2022-12-18T08:18:06;14.17;;;7.87;;
4704;SDS011;2366;51.332;6.610;2022-12-18T08:20:31;11.33;;;7.07;;
4704;SDS011;2366;51.332;6.610;2022-12-18T08:22:56;11.50;;;6.47;;
4704;SDS011;2366;51.332;6.610;2022-12-18T08:25:23;20.52;;;7.75;;
4704;SDS011;2366;51.332;6.610;2022-12-18T08:27:48;11.27;;;6.37;;
4704;SDS011;2366;51.332;6.610;2022-12-18T08:30:14;12.33;;;7.70;;
4704;SDS011;2366;51.332;6.610;2022-12-18T08:32:39;13.27;;;7.53;;
4704;SDS011;2366;51.332;6.610;2022-12-18T08:35:05;10.93;;;7.53;;
4704;SDS011;2366;51.332;6.610;2022-12-18T08:37:30;14.70;;;7.63;;
4704;SDS011;2366;51.332;6.610;2022-12-18T08:39:56;13.30;;;7.60;;
4704;SDS011;2366;51.332;6.610;2022-12-18T08:42:21;11.63;;;7.47;;
4704;SDS011;2366;51.332;6.610;2022-12-18T08:45:05;10.18;;;7.13;;
4704;SDS011;2366;51.332;6.610;2022-12-18T08:47:31;14.03;;;7.70;;
4704;SDS011;2366;51.332;6.610;2022-12-18T08:49:56;12.50;;;7.77;;
4704;SDS011;2366;51.332;6.610;2022-12-18T08:52:22;11.70;;;6.70;;
4704;SDS011;2366;51.332;6.610;2022-12-18T08:54:47;10.20;;;6.97;;
4704;SDS011;2366;51.332;6.610;2022-12-18T08:57:12;14.60;;;8.57;;
4704;SDS011;2366;51.332;6.610;2022-12-18T08:59:38;14.17;;;8.63;;
4704;SDS011;2366;51.332;6.610;2022-12-18T09:02:03;15.63;;;9.17;;
4704;SDS011;2366;51.332;6.610;2022-12-18T09:04:28;8.43;;;6.43;;
4704;SDS011;2366;51.332;6.610;2022-12-18T09:06:54;9.60;;;7.07;;
4704;SDS011;2366;51.332;6.610;2022-12-18T09:09:19;15.80;;;8.97;;
4704;SDS011;2366;51.332;6.610;2022-12-18T09:11:45;12.70;;;7.67;;
4704;SDS011;2366;51.332;6.610;2022-12-18T09:14:10;13.57;;;7.50;;
4704;SDS011;2366;51.332;6.610;2022-12-18T09:16:35;16.00;;;9.37;;
4704;SDS011;2366;51.332;6.610;2022-12-18T09:19:02;16.40;;;7.97;;
4704;SDS011;2366;51.332;6.610;2022-12-18T09:21:29;13.30;;;8.20;;
4704;SDS011;2366;51.332;6.610;2022-12-18T09:23:57;11.20;;;7.88;;
4704;SDS011;2366;51.332;6.610;2022-12-18T09:26:23;11.40;;;7.60;;
4704;SDS011;2366;51.332;6.610;2022-12-18T09:28:49;12.55;;;7.25;;
4704;SDS011;2366;51.332;6.610;2022-12-18T09:31:15;11.20;;;7.10;;
4704;SDS011;2366;51.332;6.610;2022-12-18T09:33:41;15.70;;;9.02;;
4704;SDS011;2366;51.332;6.610;2022-12-18T09:36:08;14.27;;;7.73;;
4704;SDS011;2366;51.332;6.610;2022-12-18T09:38:40;16.35;;;8.13;;
4704;SDS011;2366;51.332;6.610;2022-12-18T09:41:52;12.48;;;8.68;;
4704;SDS011;2366;51.332;6.610;2022-12-18T09:47:07;13.32;;;8.25;;
4704;SDS011;2366;51.332;6.610;2022-12-18T09:49:52;13.25;;;6.90;;
4704;SDS011;2366;51.332;6.610;2022-12-18T09:52:35;10.20;;;7.22;;
4704;SDS011;2366;51.332;6.610;2022-12-18T09:55:48;13.02;;;8.30;;
4704;SDS011;2366;51.332;6.610;2022-12-18T09:58:13;14.70;;;9.75;;
4704;SDS011;2366;51.332;6.610;2022-12-18T10:00:57;11.90;;;7.15;;
4704;SDS011;2366;51.332;6.610;2022-12-18T10:03:22;11.90;;;8.27;;
4704;SDS011;2366;51.332;6.610;2022-12-18T10:06:07;15.13;;;8.37;;
4704;SDS011;2366;51.332;6.610;2022-12-18T10:16:36;13.65;;;7.78;;
4704;SDS011;2366;51.332;6.610;2022-12-18T10:19:33;10.63;;;7.05;;
4704;SDS011;2366;51.332;6.610;2022-12-18T10:22:10;17.25;;;9.00;;
4704;SDS011;2366;51.332;6.610;2022-12-18T10:27:25;14.55;;;8.60;;
4704;SDS011;2366;51.332;6.610;2022-12-18T10:29:51;14.23;;;8.00;;
4704;SDS011;2366;51.332;6.610;2022-12-18T10:32:22;13.77;;;8.18;;
4704;SDS011;2366;51.332;6.610;2022-12-18T10:34:53;14.65;;;7.93;;
4704;SDS011;2366;51.332;6.610;2022-12-18T10:37:22;13.98;;;7.28;;
4704;SDS011;2366;51.332;6.610;2022-12-18T10:42:29;16.45;;;8.45;;
4704;SDS011;2366;51.332;6.610;2022-12-18T10:45:02;13.33;;;9.40;;
4704;SDS011;2366;51.332;6.610;2022-12-18T10:47:33;14.48;;;8.80;;
4704;SDS011;2366;51.332;6.610;2022-12-18T10:49:59;11.13;;;7.88;;
4704;SDS011;2366;51.332;6.610;2022-12-18T10:52:25;12.53;;;7.97;;
4704;SDS011;2366;51.332;6.610;2022-12-18T10:54:51;25.02;;;8.65;;
4704;SDS011;2366;51.332;6.610;2022-12-18T10:59:52;12.90;;;8.25;;
4704;SDS011;2366;51.332;6.610;2022-12-18T11:02:27;12.52;;;7.82;;
4704;SDS011;2366;51.332;6.610;2022-12-18T11:04:58;17.20;;;9.45;;
4704;SDS011;2366;51.332;6.610;2022-12-18T11:07:23;25.17;;;8.83;;
4704;SDS011;2366;51.332;6.610;2022-12-18T11:09:59;16.50;;;10.00;;
4704;SDS011;2366;51.332;6.610;2022-12-18T11:12:25;16.70;;;8.52;;
4704;SDS011;2366;51.332;6.610;2022-12-18T11:14:54;12.60;;;8.25;;
4704;SDS011;2366;51.332;6.610;2022-12-18T11:17:22;24.20;;;9.02;;
4704;SDS011;2366;51.332;6.610;2022-12-18T11:19:58;13.75;;;8.52;;
4704;SDS011;2366;51.332;6.610;2022-12-18T11:22:31;12.52;;;8.98;;
4704;SDS011;2366;51.332;6.610;2022-12-18T11:24:59;13.48;;;8.40;;
4704;SDS011;2366;51.332;6.610;2022-12-18T11:27:26;14.40;;;9.15;;
4704;SDS011;2366;51.332;6.610;2022-12-18T11:30:06;19.52;;;9.10;;
4704;SDS011;2366;51.332;6.610;2022-12-18T11:32:35;13.05;;;8.13;;
4704;SDS011;2366;51.332;6.610;2022-12-18T11:37:28;14.67;;;8.60;;
4704;SDS011;2366;51.332;6.610;2022-12-18T11:39:57;15.18;;;10.05;;
4704;SDS011;2366;51.332;6.610;2022-12-18T11:47:41;15.43;;;8.80;;
4704;SDS011;2366;51.332;6.610;2022-12-18T11:50:16;14.90;;;8.63;;
4704;SDS011;2366;51.332;6.610;2022-12-18T11:52:43;16.70;;;9.18;;
4704;SDS011;2366;51.332;6.610;2022-12-18T11:55:12;17.60;;;10.00;;
4704;SDS011;2366;51.332;6.610;2022-12-18T12:00:17;15.32;;;8.35;;
4704;SDS011;2366;51.332;6.610;2022-12-18T12:16:11;14.82;;;8.55;;
4704;SDS011;2366;51.332;6.610;2022-12-18T12:18:47;21.48;;;9.07;;
4704;SDS011;2366;51.332;6.610;2022-12-18T12:26:34;16.08;;;9.40;;
4704;SDS011;2366;51.332;6.610;2022-12-18T12:34:34;20.13;;;9.88;;
4704;SDS011;2366;51.332;6.610;2022-12-18T12:37:20;23.10;;;9.15;;
4704;SDS011;2366;51.332;6.610;2022-12-18T12:40:04;17.30;;;9.77;;
4704;SDS011;2366;51.332;6.610;2022-12-18T12:42:41;17.43;;;11.30;;
4704;SDS011;2366;51.332;6.610;2022-12-18T12:45:38;18.13;;;11.05;;
4704;SDS011;2366;51.332;6.610;2022-12-18T12:49:03;19.45;;;11.02;;
4704;SDS011;2366;51.332;6.610;2022-12-18T12:53:44;17.88;;;11.52;;
4704;SDS011;2366;51.332;6.610;2022-12-18T12:56:11;18.20;;;10.27;;
4704;SDS011;2366;51.332;6.610;2022-12-18T13:02:35;15.65;;;9.32;;
4704;SDS011;2366;51.332;6.610;2022-12-18T13:04:46;17.23;;;10.85;;
4704;SDS011;2366;51.332;6.610;2022-12-18T13:07:26;23.20;;;12.82;;
4704;SDS011;2366;51.332;6.610;2022-12-18T13:15:32;20.02;;;11.32;;
4704;SDS011;2366;51.332;6.610;2022-12-18T13:18:05;18.90;;;10.48;;
4704;SDS011;2366;51.332;6.610;2022-12-18T13:20:39;19.10;;;11.80;;
4704;SDS011;2366;51.332;6.610;2022-12-18T13:25:47;19.50;;;12.48;;
4704;SDS011;2366;51.332;6.610;2022-12-18T13:30:58;19.73;;;11.27;;
4704;SDS011;2366;51.332;6.610;2022-12-18T13:33:34;27.03;;;14.13;;
4704;SDS011;2366;51.332;6.610;2022-12-18T13:41:39;20.02;;;11.65;;
4704;SDS011;2366;51.332;6.610;2022-12-18T13:44:28;23.00;;;12.60;;
4704;SDS011;2366;51.332;6.610;2022-12-18T13:46:59;24.88;;;12.35;;
4704;SDS011;2366;51.332;6.610;2022-12-18T13:49:36;20.88;;;11.50;;
4704;SDS011;2366;51.332;6.610;2022-12-18T13:52:37;19.08;;;10.15;;
4704;SDS011;2366;51.332;6.610;2022-12-18T13:55:01;18.30;;;11.00;;
4704;SDS011;2366;51.332;6.610;2022-12-18T13:57:33;20.17;;;11.15;;
4704;SDS011;2366;51.332;6.610;2022-12-18T14:02:44;21.63;;;12.30;;
4704;SDS011;2366;51.332;6.610;2022-12-18T14:05:21;21.08;;;11.23;;
4704;SDS011;2366;51.332;6.610;2022-12-18T14:07:46;18.10;;;11.38;;
4704;SDS011;2366;51.332;6.610;2022-12-18T14:10:12;19.73;;;10.40;;
4704;SDS011;2366;51.332;6.610;2022-12-18T14:12:44;16.20;;;10.60;;
4704;SDS011;2366;51.332;6.610;2022-12-18T14:17:59;20.90;;;12.73;;
4704;SDS011;2366;51.332;6.610;2022-12-18T14:20:31;25.98;;;12.23;;
4704;SDS011;2366;51.332;6.610;2022-12-18T14:22:57;20.88;;;12.50;;
4704;SDS011;2366;51.332;6.610;2022-12-18T14:25:29;25.13;;;12.18;;
4704;SDS011;2366;51.332;6.610;2022-12-18T14:30:37;24.02;;;13.00;;
4704;SDS011;2366;51.332;6.610;2022-12-18T14:35:34;18.33;;;11.65;;
4704;SDS011;2366;51.332;6.610;2022-12-18T14:38:19;18.58;;;10.85;;
4704;SDS011;2366;51.332;6.610;2022-12-18T14:40:56;20.95;;;12.27;;
4704;SDS011;2366;51.332;6.610;2022-12-18T14:43:34;21.73;;;12.70;;
4704;SDS011;2366;51.332;6.610;2022-12-18T14:46:00;21.15;;;12.10;;
4704;SDS011;2366;51.332;6.610;2022-12-18T14:48:33;21.85;;;12.23;;
4704;SDS011;2366;51.332;6.610;2022-12-18T14:51:03;24.05;;;13.60;;
4704;SDS011;2366;51.332;6.610;2022-12-18T14:53:42;21.52;;;12.15;;
4704;SDS011;2366;51.332;6.610;2022-12-18T14:56:13;21.48;;;12.02;;
4704;SDS011;2366;51.332;6.610;2022-12-18T14:58:38;19.13;;;11.23;;
4704;SDS011;2366;51.332;6.610;2022-12-18T15:01:04;25.80;;;14.00;;
4704;SDS011;2366;51.332;6.610;2022-12-18T15:03:30;21.80;;;13.33;;
4704;SDS011;2366;51.332;6.610;2022-12-18T15:05:55;21.90;;;11.80;;
4704;SDS011;2366;51.332;6.610;2022-12-18T15:08:28;23.60;;;13.53;;
4704;SDS011;2366;51.332;6.610;2022-12-18T15:11:01;22.13;;;12.32;;
4704;SDS011;2366;51.332;6.610;2022-12-18T15:13:27;20.70;;;11.98;;
4704;SDS011;2366;51.332;6.610;2022-12-18T15:16:00;23.70;;;13.10;;
4704;SDS011;2366;51.332;6.610;2022-12-18T15:18:32;26.90;;;14.40;;
4704;SDS011;2366;51.332;6.610;2022-12-18T15:21:09;20.95;;;11.35;;
4704;SDS011;2366;51.332;6.610;2022-12-18T15:23:36;23.73;;;13.00;;
4704;SDS011;2366;51.332;6.610;2022-12-18T15:26:11;25.27;;;13.05;;
4704;SDS011;2366;51.332;6.610;2022-12-18T15:31:22;23.42;;;11.77;;
4704;SDS011;2366;51.332;6.610;2022-12-18T15:36:16;23.47;;;11.70;;
4704;SDS011;2366;51.332;6.610;2022-12-18T15:38:45;29.27;;;11.93;;
4704;SDS011;2366;51.332;6.610;2022-12-18T15:41:18;27.17;;;13.38;;
4704;SDS011;2366;51.332;6.610;2022-12-18T15:43:45;25.92;;;14.13;;
4704;SDS011;2366;51.332;6.610;2022-12-18T15:46:16;24.42;;;15.27;;
4704;SDS011;2366;51.332;6.610;2022-12-18T15:48:46;25.50;;;15.43;;
4704;SDS011;2366;51.332;6.610;2022-12-18T15:54:02;33.75;;;14.50;;
4704;SDS011;2366;51.332;6.610;2022-12-18T15:56:29;25.33;;;13.25;;
4704;SDS011;2366;51.332;6.610;2022-12-18T15:59:14;27.73;;;14.07;;
4704;SDS011;2366;51.332;6.610;2022-12-18T16:01:42;23.95;;;13.82;;
4704;SDS011;2366;51.332;6.610;2022-12-18T16:04:13;21.20;;;13.68;;
4704;SDS011;2366;51.332;6.610;2022-12-18T16:06:40;25.30;;;13.80;;
4704;SDS011;2366;51.332;6.610;2022-12-18T16:09:06;23.80;;;13.47;;
4704;SDS011;2366;51.332;6.610;2022-12-18T16:11:32;23.30;;;14.37;;
4704;SDS011;2366;51.332;6.610;2022-12-18T16:16:51;28.00;;;14.40;;
4704;SDS011;2366;51.332;6.610;2022-12-18T16:19:18;22.85;;;14.07;;
4704;SDS011;2366;51.332;6.610;2022-12-18T16:21:44;22.47;;;13.90;;
4704;SDS011;2366;51.332;6.610;2022-12-18T16:24:18;24.73;;;13.27;;
4704;SDS011;2366;51.332;6.610;2022-12-18T16:26:46;25.05;;;14.35;;
4704;SDS011;2366;51.332;6.610;2022-12-18T16:29:13;26.98;;;13.55;;
4704;SDS011;2366;51.332;6.610;2022-12-18T16:31:38;30.47;;;15.43;;
4704;SDS011;2366;51.332;6.610;2022-12-18T16:34:18;24.98;;;13.85;;
4704;SDS011;2366;51.332;6.610;2022-12-18T16:36:47;25.83;;;14.85;;
4704;SDS011;2366;51.332;6.610;2022-12-18T16:39:14;30.05;;;15.05;;
4704;SDS011;2366;51.332;6.610;2022-12-18T16:41:40;30.17;;;16.63;;
4704;SDS011;2366;51.332;6.610;2022-12-18T16:44:05;27.63;;;15.40;;
4704;SDS011;2366;51.332;6.610;2022-12-18T16:46:31;24.53;;;15.07;;
4704;SDS011;2366;51.332;6.610;2022-12-18T16:48:57;25.00;;;13.80;;
4704;SDS011;2366;51.332;6.610;2022-12-18T16:51:23;29.23;;;15.10;;
4704;SDS011;2366;51.332;6.610;2022-12-18T16:53:49;31.02;;;14.80;;
4704;SDS011;2366;51.332;6.610;2022-12-18T16:56:14;29.67;;;14.10;;
4704;SDS011;2366;51.332;6.610;2022-12-18T16:58:40;30.93;;;15.27;;
4704;SDS011;2366;51.332;6.610;2022-12-18T17:01:06;27.20;;;12.87;;
4704;SDS011;2366;51.332;6.610;2022-12-18T17:03:33;27.35;;;17.20;;
4704;SDS011;2366;51.332;6.610;2022-12-18T17:06:05;23.03;;;13.60;;
4704;SDS011;2366;51.332;6.610;2022-12-18T17:08:31;32.00;;;15.88;;